createdAt,value
2019-04-10T00:00:33.324Z,58.85
2019-04-10T00:03:04.548Z,58.83
2019-04-10T00:05:36.187Z,58.78
2019-04-10T00:08:08.282Z,58.75
2019-04-10T00:10:40.065Z,58.72
2019-04-10T00:13:12.175Z,58.75
2019-04-10T00:15:43.090Z,58.77
2019-04-10T00:18:15.824Z,58.88
2019-04-10T00:20:46.989Z,58.85
2019-04-10T00:23:19.604Z,58.91
2019-04-10T00:25:50.868Z,58.91
2019-04-10T00:28:21.822Z,59.03
2019-04-10T00:30:53.591Z,59.16
2019-04-10T00:33:25.600Z,59.11
2019-04-10T00:35:57.007Z,59.11
2019-04-10T00:38:29.548Z,59.08
2019-04-10T00:41:00.692Z,59.14
2019-04-10T00:43:31.670Z,59.12
2019-04-10T00:46:02.643Z,59.17
2019-04-10T00:48:34.211Z,59.25
2019-04-10T00:51:05.156Z,59.25
2019-04-10T00:53:37.065Z,59.20
2019-04-10T00:56:08.429Z,59.20
2019-04-10T00:58:39.611Z,59.20
2019-04-10T01:01:11.818Z,59.16
2019-04-10T01:03:43.486Z,59.04
2019-04-10T01:06:15.837Z,59.04
2019-04-10T01:08:48.703Z,59.13
2019-04-10T01:11:19.856Z,58.92
2019-04-10T01:13:51.709Z,58.92
2019-04-10T01:16:23.103Z,59.20
2019-04-10T01:18:55.126Z,59.19
2019-04-10T01:21:26.431Z,59.15
2019-04-10T01:23:59.405Z,59.28
2019-04-10T01:26:31.536Z,59.18
2019-04-10T01:29:03.472Z,59.16
2019-04-10T01:31:35.113Z,59.35
2019-04-10T01:34:07.318Z,59.43
2019-04-10T01:36:39.467Z,59.30
2019-04-10T01:39:13.815Z,59.45
2019-04-10T01:41:44.912Z,59.60
2019-04-10T01:44:15.907Z,59.71
2019-04-10T01:46:46.802Z,59.75
2019-04-10T01:49:17.766Z,59.75
2019-04-10T01:51:49.718Z,59.78
2019-04-10T01:54:20.862Z,59.78
2019-04-10T01:56:52.144Z,59.80
2019-04-10T01:59:25.608Z,59.78
2019-04-10T02:02:00.892Z,59.82
2019-04-10T02:04:33.132Z,59.81
2019-04-10T02:07:04.134Z,59.80
2019-04-10T02:09:35.166Z,59.67
2019-04-10T02:12:06.247Z,59.67
2019-04-10T02:14:37.168Z,59.78
2019-04-10T02:17:08.511Z,59.70
2019-04-10T02:19:40.574Z,59.70
2019-04-10T02:22:14.133Z,59.70
2019-04-10T02:24:47.215Z,59.80
2019-04-10T02:27:18.339Z,59.83
2019-04-10T02:29:50.238Z,59.83
2019-04-10T02:32:21.335Z,60.02
2019-04-10T02:34:53.191Z,59.91
2019-04-10T02:37:25.111Z,60.00
2019-04-10T02:40:00.978Z,60.11
2019-04-10T02:42:30.289Z,60.18
2019-04-10T02:45:02.214Z,60.26
2019-04-10T02:47:34.701Z,60.26
2019-04-10T02:50:07.868Z,60.21
2019-04-10T02:52:40.592Z,60.26
2019-04-10T02:55:14.333Z,60.31
2019-04-10T02:57:45.936Z,60.41
2019-04-10T03:00:18.189Z,60.46
2019-04-10T03:02:52.025Z,60.46
2019-04-10T03:05:26.695Z,60.63
2019-04-10T03:07:58.055Z,60.69
2019-04-10T03:10:38.929Z,60.70
2019-04-10T03:13:05.025Z,60.82
2019-04-10T03:15:36.329Z,60.90
2019-04-10T03:18:08.306Z,60.92
2019-04-10T03:20:40.483Z,60.96
2019-04-10T03:23:11.617Z,60.84
2019-04-10T03:25:43.311Z,60.86
2019-04-10T03:28:14.578Z,61.03
2019-04-10T03:30:46.603Z,61.02
2019-04-10T03:33:26.116Z,60.97
2019-04-10T03:35:54.887Z,61.18
2019-04-10T03:38:25.887Z,61.18
2019-04-10T03:40:56.948Z,61.19
2019-04-10T03:43:27.933Z,61.22
2019-04-10T03:45:59.229Z,61.24
2019-04-10T03:48:31.308Z,61.24
2019-04-10T03:51:02.482Z,61.37
2019-04-10T03:53:34.078Z,61.42
2019-04-10T03:56:05.385Z,61.39
2019-04-10T03:58:36.293Z,61.48
2019-04-10T04:01:07.234Z,61.50
2019-04-10T04:03:38.970Z,61.56
2019-04-10T04:06:11.082Z,61.55
2019-04-10T04:08:42.102Z,61.52
2019-04-10T04:11:15.613Z,61.57
2019-04-10T04:13:46.602Z,61.71
2019-04-10T04:16:17.532Z,61.67
2019-04-10T04:18:49.179Z,61.69
2019-04-10T04:21:24.391Z,61.79
2019-04-10T04:23:55.304Z,61.88
2019-04-10T04:26:28.098Z,61.81
2019-04-10T04:29:00.012Z,61.78
2019-04-10T04:31:31.236Z,61.77
2019-04-10T04:34:02.186Z,61.83
2019-04-10T04:36:33.184Z,61.90
2019-04-10T04:39:18.091Z,61.83
2019-04-10T04:41:38.715Z,61.94
2019-04-10T04:44:10.253Z,61.91
2019-04-10T04:46:41.256Z,61.91
2019-04-10T04:49:15.739Z,62.11
2019-04-10T04:51:46.714Z,62.01
2019-04-10T04:54:17.612Z,62.06
2019-04-10T04:56:50.448Z,62.06
2019-04-10T04:59:21.469Z,62.21
2019-04-10T05:01:52.969Z,62.15
2019-04-10T05:04:25.078Z,62.13
2019-04-10T05:09:53.315Z,62.36
2019-04-10T05:12:25.339Z,62.26
2019-04-10T05:15:09.415Z,62.28
2019-04-10T05:17:49.232Z,62.38
2019-04-10T05:20:39.533Z,62.43
2019-04-10T05:23:00.254Z,62.34
2019-04-10T05:25:31.612Z,62.47
2019-04-10T05:28:03.588Z,62.39
2019-04-10T05:30:35.726Z,62.38
2019-04-10T05:33:06.671Z,62.45
2019-04-10T05:35:37.651Z,62.34
2019-04-10T05:38:08.585Z,62.36
2019-04-10T05:40:40.064Z,62.42
2019-04-10T05:43:11.487Z,62.42
2019-04-10T05:45:42.861Z,62.44
2019-04-10T05:48:13.821Z,62.34
2019-04-10T05:50:54.025Z,62.42
2019-04-10T05:53:18.452Z,62.26
2019-04-10T05:55:49.586Z,62.28
2019-04-10T05:58:21.637Z,62.26
2019-04-10T06:00:53.381Z,62.24
2019-04-10T06:03:24.752Z,62.16
2019-04-10T06:05:59.593Z,62.11
2019-04-10T06:08:29.386Z,61.98
2019-04-10T06:11:00.466Z,61.83
2019-04-10T06:13:32.542Z,61.73
2019-04-10T06:16:03.738Z,61.56
2019-04-10T06:18:35.477Z,61.40
2019-04-10T06:21:07.057Z,61.33
2019-04-10T06:23:39.298Z,61.25
2019-04-10T06:26:10.356Z,61.12
2019-04-10T06:28:42.200Z,61.03
2019-04-10T06:31:14.654Z,60.85
2019-04-10T06:33:46.411Z,60.63
2019-04-10T06:36:17.589Z,60.40
2019-04-10T06:38:48.529Z,60.17
2019-04-10T06:41:19.608Z,59.57
2019-04-10T06:43:50.548Z,58.98
2019-04-10T06:46:22.411Z,58.10
2019-04-10T06:48:53.366Z,57.39
2019-04-10T06:51:25.067Z,54.85
2019-04-10T06:54:03.616Z,52.92
2019-04-10T06:56:29.220Z,51.82
2019-04-10T06:59:00.397Z,51.24
2019-04-10T07:01:40.485Z,50.12
2019-04-10T07:04:07.670Z,49.28
2019-04-10T07:06:50.058Z,48.63
2019-04-10T07:09:13.753Z,48.22
2019-04-10T07:11:44.992Z,48.70
2019-04-10T07:14:16.739Z,49.07
2019-04-10T07:16:48.629Z,49.08
2019-04-10T07:19:19.890Z,47.91
2019-04-10T07:21:51.242Z,48.00
2019-04-10T07:24:22.908Z,47.65
2019-04-10T07:26:53.916Z,47.56
2019-04-10T07:29:27.690Z,47.48
2019-04-10T07:31:58.352Z,47.89
2019-04-10T07:34:29.926Z,47.49
2019-04-10T07:37:02.200Z,48.02
2019-04-10T07:39:34.098Z,47.60
2019-04-10T07:42:06.283Z,47.49
2019-04-10T07:44:37.311Z,47.70
2019-04-10T07:47:09.354Z,47.67
2019-04-10T07:49:40.336Z,48.09
2019-04-10T07:52:11.335Z,46.97
2019-04-10T07:54:44.592Z,46.96
2019-04-10T07:57:16.019Z,46.55
2019-04-10T07:59:47.217Z,46.43
2019-04-10T08:02:18.463Z,46.87
2019-04-10T08:04:49.436Z,46.79
2019-04-10T08:07:29.791Z,47.31
2019-04-10T08:09:54.070Z,47.54
2019-04-10T08:12:36.982Z,48.00
2019-04-10T08:14:57.696Z,47.19
2019-04-10T08:17:30.468Z,47.17
2019-04-10T08:20:01.663Z,46.85
2019-04-10T08:22:33.071Z,46.38
2019-04-10T08:25:06.416Z,46.03
2019-04-10T08:27:38.470Z,46.01
2019-04-10T08:30:11.086Z,46.26
2019-04-10T08:32:53.296Z,46.36
2019-04-10T08:35:17.419Z,46.96
2019-04-10T08:37:49.396Z,46.04
2019-04-10T08:40:21.117Z,47.61
2019-04-10T08:42:52.462Z,47.74
2019-04-10T08:45:33.198Z,48.02
2019-04-10T08:47:59.484Z,46.57
2019-04-10T08:50:30.695Z,46.71
2019-04-10T08:53:18.024Z,46.00
2019-04-10T08:55:50.424Z,45.97
2019-04-10T08:58:21.476Z,45.81
2019-04-10T09:00:53.960Z,45.48
2019-04-10T09:03:26.736Z,45.40
2019-04-10T09:05:58.767Z,45.48
2019-04-10T09:08:30.181Z,45.15
2019-04-10T09:11:05.604Z,45.35
2019-04-10T09:13:36.869Z,44.75
2019-04-10T09:16:07.899Z,45.15
2019-04-10T09:18:39.742Z,44.91
2019-04-10T09:21:11.163Z,45.14
2019-04-10T09:23:50.268Z,45.92
2019-04-10T09:26:16.382Z,46.16
2019-04-10T09:28:47.405Z,46.56
2019-04-10T09:31:18.421Z,46.92
2019-04-10T09:33:49.589Z,47.29
2019-04-10T09:36:21.491Z,47.45
2019-04-10T09:38:52.849Z,47.18
2019-04-10T09:41:23.894Z,46.61
2019-04-10T09:43:56.633Z,47.92
2019-04-10T09:46:28.762Z,47.51
2019-04-10T09:49:00.462Z,46.90
2019-04-10T09:51:31.901Z,47.00
2019-04-10T09:54:03.602Z,47.35
2019-04-10T09:56:34.863Z,47.09
2019-04-10T09:59:05.822Z,46.60
2019-04-10T10:01:37.902Z,46.07
2019-04-10T10:04:13.222Z,45.74
2019-04-10T10:06:45.350Z,46.08
2019-04-10T10:09:17.625Z,46.47
2019-04-10T10:11:49.160Z,47.28
2019-04-10T10:14:20.939Z,46.82
2019-04-10T10:16:52.596Z,46.44
2019-04-10T10:19:25.938Z,46.98
2019-04-10T10:21:57.142Z,47.83
2019-04-10T10:24:28.879Z,48.10
2019-04-10T10:26:59.912Z,47.35
2019-04-10T10:29:33.525Z,46.90
2019-04-10T10:32:04.664Z,46.54
2019-04-10T10:34:36.776Z,46.10
2019-04-10T10:37:08.450Z,45.98
2019-04-10T10:39:39.391Z,46.53
2019-04-10T10:42:11.582Z,48.29
2019-04-10T10:44:42.714Z,48.23
2019-04-10T10:47:13.767Z,47.68
2019-04-10T10:49:45.527Z,47.66
2019-04-10T10:52:17.543Z,47.82
2019-04-10T10:54:49.389Z,47.65
2019-04-10T10:57:20.454Z,47.89
2019-04-10T10:59:53.594Z,47.93
2019-04-10T11:02:25.557Z,47.97
2019-04-10T11:05:02.572Z,47.45
2019-04-10T11:07:32.995Z,47.32
2019-04-10T11:10:04.856Z,47.87
2019-04-10T11:12:42.342Z,48.33
2019-04-10T11:15:14.210Z,50.32
2019-04-10T11:17:46.099Z,50.79
2019-04-10T11:20:19.826Z,50.04
2019-04-10T11:22:50.929Z,50.04
2019-04-10T11:25:22.197Z,49.23
2019-04-10T11:27:53.953Z,48.44
2019-04-10T11:30:25.023Z,48.03
2019-04-10T11:32:55.993Z,48.24
2019-04-10T11:35:29.009Z,49.44
2019-04-10T11:38:01.386Z,49.73
2019-04-10T11:40:34.304Z,49.18
2019-04-10T11:43:05.958Z,49.11
2019-04-10T11:45:41.841Z,49.14
2019-04-10T11:48:10.300Z,48.31
2019-04-10T11:50:43.852Z,48.17
2019-04-10T11:53:17.778Z,49.84
2019-04-10T11:55:51.122Z,49.50
2019-04-10T11:58:21.737Z,49.74
2019-04-10T12:00:56.399Z,49.03
2019-04-10T12:03:27.145Z,48.87
2019-04-10T12:05:59.844Z,48.21
2019-04-10T12:09:00.370Z,48.06
2019-04-10T12:11:08.694Z,47.30
2019-04-10T12:13:38.717Z,46.06
2019-04-10T12:16:09.685Z,46.15
2019-04-10T12:18:40.641Z,46.07
2019-04-10T12:21:13.522Z,46.19
2019-04-10T12:23:45.238Z,46.06
2019-04-10T12:26:16.221Z,46.08
2019-04-10T12:28:47.267Z,45.18
2019-04-10T12:31:18.256Z,44.91
2019-04-10T12:33:50.736Z,45.34
2019-04-10T12:36:22.828Z,46.40
2019-04-10T12:38:54.142Z,47.07
2019-04-10T12:41:25.605Z,47.25
2019-04-10T12:43:56.969Z,48.16
2019-04-10T12:46:28.917Z,48.92
2019-04-10T12:49:01.497Z,49.80
2019-04-10T12:51:32.726Z,50.92
2019-04-10T12:54:04.633Z,52.15
2019-04-10T12:56:35.927Z,50.80
2019-04-10T12:59:07.017Z,49.79
2019-04-10T13:01:38.575Z,49.38
2019-04-10T13:04:09.670Z,49.37
2019-04-10T13:06:42.258Z,49.17
2019-04-10T13:09:14.416Z,49.21
2019-04-10T13:11:48.961Z,49.65
2019-04-10T13:14:20.159Z,49.99
2019-04-10T13:16:52.113Z,50.56
2019-04-10T13:19:23.158Z,49.81
2019-04-10T13:21:55.814Z,50.04
2019-04-10T13:24:27.928Z,50.99
2019-04-10T13:26:59.038Z,51.25
2019-04-10T13:29:30.105Z,51.66
2019-04-10T13:32:01.349Z,52.30
2019-04-10T13:34:33.327Z,52.48
2019-04-10T13:37:06.209Z,53.89
2019-04-10T13:39:37.416Z,53.33
2019-04-10T13:42:09.292Z,54.20
2019-04-10T13:44:42.534Z,53.92
2019-04-10T13:47:17.501Z,53.88
2019-04-10T13:49:51.121Z,53.47
2019-04-10T13:52:24.367Z,53.92
2019-04-10T13:54:55.330Z,55.56
2019-04-10T13:57:26.449Z,57.00
2019-04-10T13:59:57.542Z,58.23
2019-04-10T14:02:31.236Z,58.02
2019-04-10T14:05:03.309Z,58.28
2019-04-10T14:07:36.094Z,58.05
2019-04-10T14:10:08.237Z,59.41
2019-04-10T14:12:39.159Z,58.97
2019-04-10T14:15:10.049Z,58.41
2019-04-10T14:17:41.727Z,58.70
2019-04-10T14:20:15.212Z,58.21
2019-04-10T14:22:48.182Z,58.07
2019-04-10T14:25:20.712Z,57.64
2019-04-10T14:27:52.309Z,57.45
2019-04-10T14:30:40.255Z,57.72
2019-04-10T14:33:11.360Z,58.80
2019-04-10T14:35:43.169Z,61.67
2019-04-10T14:38:15.633Z,61.98
2019-04-10T14:40:51.400Z,61.69
2019-04-10T14:43:24.797Z,61.29
2019-04-10T14:45:56.003Z,61.65
2019-04-10T14:48:27.927Z,61.90
2019-04-10T14:50:59.799Z,62.57
2019-04-10T14:53:31.798Z,62.99
2019-04-10T14:56:02.708Z,62.48
2019-04-10T14:58:35.392Z,62.75
2019-04-10T15:01:08.430Z,65.28
2019-04-10T15:03:40.303Z,64.12
2019-04-10T15:06:11.617Z,64.46
2019-04-10T15:08:43.831Z,65.29
2019-04-10T15:11:16.770Z,65.51
2019-04-10T15:13:48.733Z,66.38
2019-04-10T15:16:20.914Z,66.75
2019-04-10T15:18:52.100Z,67.78
2019-04-10T15:21:33.007Z,68.34
2019-04-10T15:24:23.761Z,69.82
2019-04-10T15:27:09.321Z,71.60
2019-04-10T15:29:47.108Z,72.64
2019-04-10T15:32:22.378Z,74.49
2019-04-10T15:35:18.111Z,74.44
2019-04-10T15:37:50.037Z,74.75
2019-04-10T15:40:25.551Z,75.06
2019-04-10T15:42:56.584Z,74.78
2019-04-10T15:45:28.364Z,74.89
2019-04-10T15:48:15.290Z,76.29
2019-04-10T15:51:00.100Z,75.40
2019-04-10T15:59:40.674Z,76.16
2019-04-10T16:02:15.389Z,76.66
2019-04-10T16:04:48.959Z,77.60
2019-04-10T16:07:20.436Z,77.60
2019-04-10T16:09:54.608Z,76.48
2019-04-10T16:12:27.588Z,75.50
2019-04-10T16:15:02.874Z,74.61
2019-04-10T16:18:10.107Z,74.71
2019-04-10T16:21:23.382Z,74.30
2019-04-10T16:24:08.779Z,73.56
2019-04-10T16:26:43.440Z,73.65
2019-04-10T16:29:32.360Z,73.15
2019-04-10T16:32:04.209Z,72.99
2019-04-10T16:34:56.870Z,72.76
2019-04-10T16:37:33.656Z,72.53
2019-04-10T16:40:09.832Z,72.23
2019-04-10T16:42:45.050Z,72.81
2019-04-10T16:45:16.297Z,72.45
2019-04-10T16:48:08.787Z,71.80
2019-04-10T16:50:49.777Z,71.05
2019-04-10T16:53:25.745Z,72.60
2019-04-10T16:55:56.955Z,74.34
2019-04-10T16:58:27.888Z,75.00
2019-04-10T17:01:00.106Z,73.65
2019-04-10T17:03:31.069Z,73.63
2019-04-10T17:06:02.094Z,73.25
2019-04-10T17:08:43.958Z,73.13
2019-04-10T17:11:23.011Z,72.52
2019-04-10T17:17:14.500Z,72.86
2019-04-10T17:19:51.894Z,72.43
2019-04-10T17:22:30.858Z,72.04
2019-04-10T17:24:51.122Z,71.51
2019-04-10T17:27:24.129Z,71.15
2019-04-10T17:29:56.551Z,71.09
2019-04-10T17:32:29.250Z,70.55
2019-04-10T17:35:00.459Z,69.70
2019-04-10T17:37:31.874Z,69.93
2019-04-10T17:40:25.013Z,69.17
2019-04-10T17:42:50.538Z,69.27
2019-04-10T17:45:23.007Z,68.91
2019-04-10T17:47:56.519Z,68.19
2019-04-10T17:50:29.951Z,68.19
2019-04-10T17:53:02.822Z,68.24
2019-04-10T17:55:35.633Z,68.35
2019-04-10T17:58:07.414Z,68.25
2019-04-10T18:00:40.080Z,67.94
2019-04-10T18:03:14.052Z,67.86
2019-04-10T18:05:46.749Z,67.86
2019-04-10T18:08:18.834Z,67.87
2019-04-10T18:10:57.246Z,67.67
2019-04-10T18:13:28.906Z,67.67
2019-04-10T18:16:00.235Z,67.28
2019-04-10T18:18:34.247Z,67.43
2019-04-10T18:21:06.664Z,67.51
2019-04-10T18:23:39.744Z,67.30
2019-04-10T18:26:23.651Z,67.14
2019-04-10T18:28:54.741Z,67.07
2019-04-10T18:31:27.761Z,66.96
2019-04-10T18:34:14.433Z,67.04
2019-04-10T18:36:48.648Z,67.04
2019-04-10T18:39:21.893Z,66.62
2019-04-10T18:41:53.892Z,66.62
2019-04-10T18:44:25.143Z,66.87
2019-04-10T18:46:56.459Z,66.87
2019-04-10T18:49:29.477Z,66.82
2019-04-10T18:52:00.579Z,66.61
2019-04-10T18:54:31.929Z,66.61
2019-04-10T18:57:03.334Z,67.11
2019-04-10T18:59:36.491Z,66.61
2019-04-10T19:02:25.531Z,66.70
2019-04-10T19:05:00.212Z,66.70
2019-04-10T19:07:32.327Z,67.98
2019-04-10T19:10:04.380Z,69.32
2019-04-10T19:12:37.238Z,70.47
2019-04-10T19:15:09.070Z,70.47
2019-04-10T19:32:04.971Z,68.92
2019-04-10T19:38:46.708Z,68.29
2019-04-10T19:41:25.248Z,68.42
2019-04-10T19:43:50.544Z,69.10
2019-04-10T19:46:21.780Z,68.65
2019-04-10T19:48:59.574Z,69.50
2019-04-10T19:51:38.693Z,68.81
2019-04-10T19:54:13.783Z,69.05
2019-04-10T19:56:46.144Z,69.14
2019-04-10T19:59:18.802Z,68.66
2019-04-10T20:01:52.847Z,68.91
2019-04-10T20:04:24.557Z,68.65
2019-04-10T20:06:58.589Z,68.69
2019-04-10T20:09:30.535Z,68.69
2019-04-10T20:12:04.336Z,68.67
2019-04-10T20:14:37.207Z,68.68
2019-04-10T23:41:23.437Z,74.14
2019-04-10T23:44:38.125Z,74.29
2019-04-10T23:47:09.627Z,73.94
2019-04-10T23:49:41.632Z,73.86
2019-04-10T23:52:14.427Z,73.87
2019-04-10T23:54:45.816Z,73.74
2019-04-10T23:57:17.055Z,73.68
2019-04-10T23:59:47.964Z,73.97
